createdAt,value
2019-05-15T00:01:08.881Z,5.13
2019-05-15T00:03:38.856Z,4.03
2019-05-15T00:06:05.056Z,14.93
2019-05-15T00:08:32.057Z,7.80
2019-05-15T00:10:59.098Z,6.60
2019-05-15T00:13:28.282Z,7.30
2019-05-15T00:15:55.628Z,7.60
2019-05-15T00:18:22.760Z,7.77
2019-05-15T00:20:49.917Z,11.33
2019-05-15T00:23:18.276Z,8.97
2019-05-15T00:26:30.032Z,6.53
2019-05-15T00:29:09.452Z,6.77
2019-05-15T00:31:26.200Z,6.27
2019-05-15T00:33:53.322Z,5.60
2019-05-15T00:36:20.291Z,7.77
2019-05-15T00:38:48.321Z,7.23
2019-05-15T00:41:15.419Z,7.37
2019-05-15T00:43:44.192Z,8.30
2019-05-15T00:46:11.278Z,9.07
2019-05-15T00:48:39.782Z,11.80
2019-05-15T00:51:08.458Z,9.77
2019-05-15T00:53:38.760Z,12.17
2019-05-15T00:56:08.667Z,6.73
2019-05-15T00:58:35.245Z,9.70
2019-05-15T01:01:02.532Z,8.67
2019-05-15T01:03:29.519Z,8.30
2019-05-15T01:05:58.513Z,10.80
2019-05-15T01:08:25.512Z,10.43
2019-05-15T01:10:52.586Z,10.50
2019-05-15T01:13:19.528Z,9.90
2019-05-15T01:15:48.766Z,11.53
2019-05-15T01:18:18.684Z,9.40
2019-05-15T01:20:45.938Z,11.43
2019-05-15T01:23:14.945Z,9.63
2019-05-15T01:25:42.000Z,7.33
2019-05-15T01:28:10.063Z,14.83
2019-05-15T01:30:39.386Z,8.87
2019-05-15T01:33:08.270Z,10.03
2019-05-15T01:35:34.946Z,9.90
2019-05-15T01:38:01.936Z,8.13
2019-05-15T01:40:29.053Z,11.10
2019-05-15T01:42:59.482Z,10.13
2019-05-15T01:45:28.637Z,9.40
2019-05-15T01:47:55.324Z,14.80
2019-05-15T01:50:23.500Z,8.43
2019-05-15T01:52:50.529Z,8.87
2019-05-15T01:55:18.198Z,10.27
2019-05-15T01:57:45.315Z,12.73
2019-05-15T02:00:12.709Z,10.67
2019-05-15T02:02:39.680Z,11.67
2019-05-15T02:05:08.649Z,10.93
2019-05-15T02:07:39.084Z,11.67
2019-05-15T02:10:06.151Z,14.90
2019-05-15T02:12:33.125Z,7.83
2019-05-15T02:15:00.092Z,10.83
2019-05-15T02:17:28.261Z,8.70
2019-05-15T02:19:55.477Z,11.23
2019-05-15T02:22:22.479Z,12.77
2019-05-15T02:24:49.450Z,12.60
2019-05-15T02:27:18.712Z,11.53
2019-05-15T02:29:45.493Z,10.10
2019-05-15T02:32:12.443Z,10.63
2019-05-15T02:34:39.805Z,9.50
2019-05-15T02:37:08.981Z,11.73
2019-05-15T02:39:38.942Z,12.63
2019-05-15T02:42:05.045Z,10.37
2019-05-15T02:44:32.093Z,11.40
2019-05-15T02:46:59.160Z,13.00
2019-05-15T02:49:26.151Z,12.70
2019-05-15T02:51:53.176Z,8.97
2019-05-15T02:54:20.295Z,13.83
2019-05-15T02:56:49.462Z,9.43
2019-05-15T02:59:19.307Z,13.33
2019-05-15T03:01:45.261Z,10.10
2019-05-15T03:04:12.343Z,11.37
2019-05-15T03:06:39.395Z,12.60
2019-05-15T03:09:09.142Z,11.77
2019-05-15T03:11:35.334Z,12.07
2019-05-15T03:14:02.386Z,11.90
2019-05-15T03:16:30.361Z,10.77
2019-05-15T03:18:59.847Z,12.57
2019-05-15T03:21:29.488Z,9.87
2019-05-15T03:23:59.394Z,12.47
2019-05-15T03:26:29.633Z,12.20
2019-05-15T03:28:58.829Z,9.83
2019-05-15T03:31:47.585Z,16.77
2019-05-15T03:33:54.746Z,8.13
2019-05-15T03:36:24.130Z,11.60
2019-05-15T03:42:39.641Z,14.80
2019-05-15T03:45:10.104Z,13.87
2019-05-15T03:47:39.691Z,13.97
2019-05-15T03:50:05.115Z,10.53
2019-05-15T03:52:32.165Z,11.30
2019-05-15T03:55:00.190Z,9.00
2019-05-15T03:58:22.469Z,15.40
2019-05-15T04:00:49.925Z,11.00
2019-05-15T04:03:20.095Z,11.27
2019-05-15T04:05:49.215Z,13.97
2019-05-15T04:08:15.118Z,9.87
2019-05-15T04:10:42.072Z,19.87
2019-05-15T04:13:09.663Z,9.97
2019-05-15T04:15:39.499Z,11.40
2019-05-15T04:18:08.980Z,11.33
2019-05-15T04:21:11.244Z,11.70
2019-05-15T04:23:39.404Z,11.40
2019-05-15T04:26:09.290Z,18.53
2019-05-15T04:28:41.603Z,9.67
2019-05-15T04:31:09.458Z,17.37
2019-05-15T04:33:39.544Z,13.07
2019-05-15T04:36:05.407Z,14.90
2019-05-15T04:38:32.352Z,13.87
2019-05-15T04:40:59.554Z,9.63
2019-05-15T04:43:30.257Z,11.63
2019-05-15T04:45:59.192Z,10.70
2019-05-15T04:48:24.498Z,11.30
2019-05-15T04:50:51.464Z,9.87
2019-05-15T04:53:19.236Z,8.60
2019-05-15T04:55:49.084Z,8.40
2019-05-15T04:58:20.317Z,8.63
2019-05-15T05:00:52.388Z,7.67
2019-05-15T05:03:20.601Z,12.43
2019-05-15T05:05:49.797Z,9.73
2019-05-15T05:08:19.851Z,12.17
2019-05-15T05:10:48.576Z,10.53
2019-05-15T05:13:14.838Z,8.63
2019-05-15T05:15:41.884Z,15.87
2019-05-15T05:18:09.690Z,8.97
2019-05-15T05:20:38.245Z,13.53
2019-05-15T05:23:05.377Z,8.80
2019-05-15T05:25:32.323Z,9.50
2019-05-15T05:27:59.296Z,8.63
2019-05-15T05:30:26.243Z,7.57
2019-05-15T05:32:53.178Z,8.10
2019-05-15T05:35:20.171Z,7.67
2019-05-15T05:37:48.082Z,8.97
2019-05-15T05:40:15.537Z,10.37
2019-05-15T05:42:42.513Z,9.87
2019-05-15T05:45:10.307Z,14.10
2019-05-15T05:47:38.309Z,10.07
2019-05-15T05:50:07.951Z,6.37
2019-05-15T05:52:35.479Z,6.23
2019-05-15T05:55:02.434Z,10.63
2019-05-15T05:57:29.422Z,11.40
2019-05-15T05:59:58.290Z,7.47
2019-05-15T06:02:25.223Z,6.47
2019-05-15T06:04:52.203Z,8.43
2019-05-15T06:07:19.163Z,13.47
2019-05-15T06:09:48.489Z,9.57
2019-05-15T06:12:15.034Z,10.50
2019-05-15T06:14:42.082Z,9.03
2019-05-15T06:17:09.017Z,8.13
2019-05-15T06:19:38.378Z,8.67
2019-05-15T06:22:04.951Z,7.03
2019-05-15T06:24:31.851Z,8.87
2019-05-15T06:26:58.800Z,9.43
2019-05-15T06:29:25.795Z,8.10
2019-05-15T06:31:59.705Z,9.00
2019-05-15T06:34:28.585Z,5.63
2019-05-15T06:36:55.541Z,7.07
2019-05-15T06:39:22.495Z,11.07
2019-05-15T06:41:49.476Z,8.53
2019-05-15T06:44:18.550Z,5.70
2019-05-15T06:46:45.335Z,8.20
2019-05-15T06:49:12.291Z,5.23
2019-05-15T06:51:39.297Z,5.07
2019-05-15T06:54:08.553Z,5.47
2019-05-15T06:56:35.139Z,4.83
2019-05-15T06:59:02.139Z,5.33
2019-05-15T07:01:29.582Z,4.90
2019-05-15T07:03:58.858Z,4.50
2019-05-15T07:06:25.623Z,6.60
2019-05-15T07:08:52.607Z,8.90
2019-05-15T07:11:20.733Z,5.60
2019-05-15T07:14:44.281Z,8.33
2019-05-15T07:17:11.240Z,13.30
2019-05-15T07:19:39.268Z,5.47
2019-05-15T07:22:06.396Z,7.07
2019-05-15T07:24:35.161Z,6.33
2019-05-15T07:27:02.116Z,10.53
2019-05-15T07:29:29.302Z,22.60
2019-05-15T07:31:58.457Z,10.60
2019-05-15T07:34:28.374Z,8.27
2019-05-15T07:36:55.570Z,20.67
2019-05-15T07:39:22.528Z,12.37
2019-05-15T07:41:49.470Z,6.37
2019-05-15T07:44:18.755Z,8.17
2019-05-15T07:46:45.376Z,8.10
2019-05-15T07:49:12.485Z,9.13
2019-05-15T07:51:39.491Z,6.30
2019-05-15T07:54:08.930Z,5.17
2019-05-15T07:56:35.343Z,6.93
2019-05-15T07:59:02.314Z,7.50
2019-05-15T08:01:29.299Z,5.07
2019-05-15T08:04:05.115Z,7.03
2019-05-15T08:06:29.199Z,5.67
2019-05-15T08:08:56.136Z,3.93
2019-05-15T08:11:24.739Z,2.30
2019-05-15T08:13:51.986Z,7.93
2019-05-15T08:16:18.952Z,2.77
2019-05-15T08:18:48.256Z,5.20
2019-05-15T08:21:14.808Z,4.10
2019-05-15T08:23:43.116Z,4.00
2019-05-15T08:26:10.055Z,6.30
2019-05-15T08:28:57.993Z,8.33
2019-05-15T08:31:25.065Z,1.13
2019-05-15T08:33:53.109Z,1.20
2019-05-15T08:36:20.575Z,2.17
2019-05-15T08:38:48.633Z,2.63
2019-05-15T08:41:18.571Z,2.67
2019-05-15T08:43:45.409Z,2.20
2019-05-15T08:46:12.553Z,2.93
2019-05-15T08:48:39.503Z,1.20
2019-05-15T08:51:08.733Z,1.50
2019-05-15T08:53:37.825Z,2.70
2019-05-15T08:56:04.340Z,1.83
2019-05-15T08:58:31.302Z,2.47
2019-05-15T09:00:58.888Z,2.30
2019-05-15T09:03:28.459Z,1.97
2019-05-15T09:05:54.967Z,2.50
2019-05-15T09:08:22.107Z,3.40
2019-05-15T09:10:50.287Z,3.00
2019-05-15T09:13:18.832Z,2.80
2019-05-15T09:15:48.214Z,4.20
2019-05-15T09:18:16.406Z,1.53
2019-05-15T09:20:44.044Z,1.53
2019-05-15T09:23:11.028Z,2.60
2019-05-15T09:25:38.982Z,2.67
2019-05-15T09:28:08.515Z,3.43
2019-05-15T09:30:35.197Z,3.30
2019-05-15T09:33:03.969Z,4.73
2019-05-15T09:35:30.959Z,2.97
2019-05-15T09:37:58.399Z,4.80
2019-05-15T09:40:41.858Z,4.07
2019-05-15T09:42:54.425Z,1.37
2019-05-15T09:45:21.372Z,3.67
2019-05-15T09:47:48.618Z,1.90
2019-05-15T09:50:16.256Z,3.90
2019-05-15T09:52:43.222Z,4.23
2019-05-15T09:55:10.877Z,2.57
2019-05-15T09:57:38.663Z,3.53
2019-05-15T10:00:08.963Z,4.70
2019-05-15T10:02:39.078Z,5.80
2019-05-15T10:05:10.454Z,5.00
2019-05-15T10:07:34.531Z,3.13
2019-05-15T10:10:01.826Z,6.23
2019-05-15T10:12:34.516Z,4.53
2019-05-15T10:15:11.838Z,5.60
2019-05-15T10:17:41.835Z,2.03
2019-05-15T10:20:09.426Z,1.40
2019-05-15T10:22:36.379Z,5.27
2019-05-15T10:25:03.849Z,3.90
2019-05-15T10:27:30.855Z,5.03
2019-05-15T10:29:58.847Z,4.83
2019-05-15T10:32:28.987Z,3.87
2019-05-15T10:34:58.471Z,2.00
2019-05-15T10:37:24.893Z,3.43
2019-05-15T10:39:52.861Z,2.43
2019-05-15T10:42:20.033Z,3.63
2019-05-15T10:44:48.815Z,3.93
2019-05-15T10:47:15.859Z,5.03
2019-05-15T10:49:42.800Z,3.23
2019-05-15T10:52:11.336Z,2.60
2019-05-15T10:54:38.701Z,6.47
2019-05-15T10:57:08.535Z,4.13
2019-05-15T10:59:34.668Z,1.03
2019-05-15T11:02:01.628Z,6.03
2019-05-15T11:04:28.934Z,1.97
2019-05-15T11:06:58.037Z,4.93
2019-05-15T11:09:24.946Z,1.40
2019-05-15T11:11:51.907Z,3.67
2019-05-15T11:14:18.942Z,3.67
2019-05-15T11:16:48.427Z,1.77
2019-05-15T11:20:18.817Z,4.20
2019-05-15T11:22:46.207Z,4.60
2019-05-15T11:25:13.850Z,5.47
2019-05-15T11:27:40.857Z,7.83
2019-05-15T11:30:08.736Z,3.30
2019-05-15T11:32:35.805Z,1.80
2019-05-15T11:35:04.545Z,4.37
2019-05-15T11:37:31.793Z,2.53
2019-05-15T11:39:59.078Z,4.17
2019-05-15T11:42:28.841Z,3.80
2019-05-15T11:44:55.157Z,4.40
2019-05-15T11:47:22.178Z,4.77
2019-05-15T11:49:49.226Z,1.97
2019-05-15T11:52:18.867Z,6.20
2019-05-15T11:54:45.196Z,5.47
2019-05-15T11:57:12.201Z,7.97
2019-05-15T11:59:45.030Z,2.63
2019-05-15T12:02:08.568Z,3.53
2019-05-15T12:04:38.193Z,3.50
2019-05-15T12:07:05.801Z,4.47
2019-05-15T12:09:32.816Z,3.33
2019-05-15T12:11:59.834Z,8.23
2019-05-15T12:14:29.393Z,3.60
2019-05-15T12:17:06.998Z,2.37
2019-05-15T12:19:24.902Z,3.37
2019-05-15T12:21:51.890Z,8.23
2019-05-15T12:24:18.850Z,4.60
2019-05-15T12:27:42.296Z,3.97
2019-05-15T12:30:10.428Z,8.30
2019-05-15T12:32:40.341Z,2.40
2019-05-15T12:35:07.176Z,5.97
2019-05-15T12:37:34.262Z,2.90
2019-05-15T12:59:59.663Z,1.70
2019-05-15T13:02:28.046Z,2.57
2019-05-15T13:04:55.131Z,2.37
2019-05-15T13:07:22.220Z,2.77
2019-05-15T13:09:49.189Z,3.70
2019-05-15T13:12:18.218Z,2.47
2019-05-15T13:14:45.355Z,4.50
2019-05-15T13:17:12.362Z,3.70
2019-05-15T13:19:39.313Z,3.23
2019-05-15T13:22:17.305Z,2.43
2019-05-15T13:24:35.431Z,3.30
2019-05-15T13:27:02.386Z,4.63
2019-05-15T13:29:48.641Z,3.53
2019-05-15T13:32:21.040Z,3.20
2019-05-15T13:34:48.747Z,1.93
2019-05-15T13:37:26.632Z,2.80
2019-05-15T13:39:44.934Z,3.20
2019-05-15T13:42:11.879Z,7.63
2019-05-15T13:44:38.974Z,4.53
2019-05-15T13:50:24.100Z,1.97
2019-05-15T13:52:51.414Z,3.57
2019-05-15T13:55:35.260Z,4.20
2019-05-15T13:57:57.929Z,3.43
2019-05-15T14:00:24.411Z,4.00
2019-05-15T14:02:52.536Z,2.70
2019-05-15T14:05:19.486Z,4.13
2019-05-15T14:07:50.740Z,3.13
2019-05-15T14:10:18.048Z,3.60
2019-05-15T14:12:44.908Z,5.10
2019-05-15T14:15:12.367Z,2.47
2019-05-15T14:17:39.349Z,2.27
2019-05-15T14:20:09.152Z,4.17
2019-05-15T14:22:35.829Z,2.60
2019-05-15T14:25:03.434Z,2.40
2019-05-15T14:27:30.402Z,2.33
2019-05-15T14:29:58.156Z,7.83
2019-05-15T14:32:37.467Z,3.77
2019-05-15T14:34:58.509Z,2.80
2019-05-15T14:37:28.586Z,3.47
2019-05-15T14:39:58.015Z,3.70
2019-05-15T14:42:44.710Z,5.43
2019-05-15T14:45:11.938Z,5.33
2019-05-15T14:47:58.189Z,2.93
2019-05-15T14:50:25.347Z,2.60
2019-05-15T14:52:52.568Z,5.63
2019-05-15T14:55:19.750Z,4.17
2019-05-15T14:57:48.753Z,4.93
2019-05-15T15:00:19.374Z,6.10
2019-05-15T15:02:52.570Z,5.27
2019-05-15T15:05:26.474Z,2.17
2019-05-15T15:07:53.542Z,2.80
2019-05-15T15:10:20.529Z,6.27
2019-05-15T15:12:49.930Z,4.70
2019-05-15T15:15:18.063Z,4.03
2019-05-15T15:17:45.276Z,4.60
2019-05-15T15:20:14.096Z,3.97
2019-05-15T15:22:41.373Z,4.40
2019-05-15T15:25:09.841Z,5.73
2019-05-15T15:27:38.774Z,1.93
2019-05-15T15:30:09.063Z,4.43
2019-05-15T15:32:37.751Z,2.53
2019-05-15T15:35:08.517Z,4.53
2019-05-15T15:37:35.292Z,5.67
2019-05-15T15:40:48.073Z,2.07
2019-05-15T15:43:15.063Z,4.90
2019-05-15T15:45:42.045Z,4.70
2019-05-15T15:48:09.092Z,2.73
2019-05-15T15:50:38.247Z,2.63
2019-05-15T15:53:05.059Z,2.50
2019-05-15T15:55:32.425Z,4.47
2019-05-15T15:57:59.441Z,6.60
2019-05-15T16:00:28.402Z,1.70
2019-05-15T16:02:55.335Z,2.87
2019-05-15T16:05:22.344Z,3.23
2019-05-15T16:07:49.358Z,4.03
2019-05-15T16:10:18.794Z,6.07
2019-05-15T16:12:45.648Z,4.40
2019-05-15T16:18:53.227Z,5.27
2019-05-15T16:21:20.533Z,4.00
2019-05-15T16:23:48.121Z,1.50
2019-05-15T16:26:15.248Z,2.60
2019-05-15T16:28:42.235Z,6.13
2019-05-15T16:31:09.230Z,4.97
2019-05-15T16:33:36.217Z,4.17
2019-05-15T16:36:03.289Z,2.60
2019-05-15T16:38:30.329Z,3.40
2019-05-15T16:41:02.382Z,7.47
2019-05-15T16:43:29.416Z,8.40
2019-05-15T16:46:02.458Z,3.60
2019-05-15T16:48:29.636Z,3.77
2019-05-15T16:50:58.050Z,3.80
2019-05-15T16:53:25.285Z,3.77
2019-05-15T16:55:52.567Z,2.33
2019-05-15T16:58:19.539Z,2.40
2019-05-15T17:00:49.677Z,9.37
2019-05-15T17:03:24.136Z,5.17
2019-05-15T17:05:51.152Z,6.77
2019-05-15T17:08:18.137Z,2.43
2019-05-15T17:10:45.144Z,3.47
2019-05-15T17:13:12.340Z,4.73
2019-05-15T17:15:39.331Z,5.03
2019-05-15T17:18:08.868Z,2.47
2019-05-15T17:20:42.727Z,3.67
2019-05-15T17:23:09.788Z,4.50
2019-05-15T17:25:38.186Z,5.97
2019-05-15T17:28:19.892Z,7.43
2019-05-15T17:30:48.813Z,2.40
2019-05-15T17:33:35.018Z,2.17
2019-05-15T17:36:02.040Z,5.33
2019-05-15T17:38:29.047Z,3.03
2019-05-15T17:40:57.847Z,2.03
2019-05-15T17:43:24.975Z,10.80
2019-05-15T17:45:51.967Z,7.37
2019-05-15T17:48:19.697Z,4.63
2019-05-15T17:50:52.157Z,2.60
2019-05-15T17:53:17.982Z,2.93
2019-05-15T17:55:44.574Z,4.23
2019-05-15T17:58:13.093Z,5.67
2019-05-15T18:00:40.272Z,2.80
2019-05-15T18:03:25.559Z,2.27
2019-05-15T18:05:52.524Z,4.43
2019-05-15T18:08:19.569Z,1.47
2019-05-15T18:10:47.849Z,2.90
2019-05-15T18:13:15.230Z,3.90
2019-05-15T18:15:42.194Z,3.33
2019-05-15T18:18:09.790Z,4.30
2019-05-15T18:20:38.377Z,4.00
2019-05-15T18:23:08.201Z,2.30
2019-05-15T18:25:35.012Z,5.60
2019-05-15T18:28:01.989Z,3.03
2019-05-15T18:30:29.042Z,4.83
2019-05-15T18:32:58.515Z,8.87
2019-05-15T18:35:24.987Z,3.70
2019-05-15T18:37:52.038Z,3.67
2019-05-15T18:40:19.098Z,6.10
2019-05-15T18:42:49.353Z,2.77
2019-05-15T18:45:15.621Z,4.43
2019-05-15T18:47:43.709Z,2.57
2019-05-15T18:50:12.894Z,2.50
2019-05-15T18:56:11.454Z,4.10
2019-05-15T18:58:38.449Z,3.50
2019-05-15T19:01:05.544Z,1.93
2019-05-15T19:03:32.593Z,2.83
2019-05-15T19:05:59.567Z,1.73
2019-05-15T19:08:28.441Z,4.17
2019-05-15T19:10:55.587Z,1.80
2019-05-15T19:13:28.291Z,4.17
2019-05-15T19:15:57.836Z,2.57
2019-05-15T19:18:24.802Z,3.10
2019-05-15T19:20:51.794Z,6.77
2019-05-15T19:23:18.790Z,3.30
2019-05-15T19:25:48.657Z,6.17
2019-05-15T19:28:15.637Z,3.73
2019-05-15T19:30:42.911Z,4.57
2019-05-15T19:33:10.790Z,2.90
2019-05-15T19:35:39.269Z,6.63
2019-05-15T19:38:06.258Z,3.07
2019-05-15T19:40:33.221Z,6.90
2019-05-15T19:43:03.896Z,3.17
2019-05-15T19:45:29.180Z,4.27
2019-05-15T19:47:58.416Z,5.17
2019-05-15T19:50:25.142Z,3.87
2019-05-15T19:52:52.135Z,3.13
2019-05-15T19:55:25.344Z,4.80
2019-05-15T19:58:03.911Z,10.00
2019-05-15T20:00:51.628Z,6.73
2019-05-15T20:03:18.853Z,5.33
2019-05-15T20:05:45.839Z,3.93
2019-05-15T20:08:12.867Z,9.70
2019-05-15T20:10:42.038Z,3.23
2019-05-15T20:13:29.050Z,6.60
2019-05-15T20:16:14.712Z,8.50
2019-05-15T20:18:41.758Z,5.37
2019-05-15T20:21:09.003Z,2.07
2019-05-15T20:23:38.099Z,3.10
2019-05-15T20:26:04.943Z,7.67
2019-05-15T20:28:32.494Z,5.77
2019-05-15T20:30:59.652Z,5.40
2019-05-15T20:33:28.570Z,5.50
2019-05-15T20:35:55.671Z,2.10
2019-05-15T20:38:22.784Z,5.97
2019-05-15T20:40:49.780Z,3.47
2019-05-15T20:43:18.601Z,4.13
2019-05-15T20:45:45.758Z,5.00
2019-05-15T20:48:18.456Z,2.60
2019-05-15T20:50:48.086Z,7.50
2019-05-15T20:53:14.474Z,5.73
2019-05-15T20:55:41.966Z,4.80
2019-05-15T20:58:08.919Z,6.13
2019-05-15T21:00:40.793Z,2.13
2019-05-15T21:03:05.574Z,8.40
2019-05-15T21:05:32.621Z,6.30
2019-05-15T21:07:59.702Z,4.60
2019-05-15T21:10:26.793Z,5.80
2019-05-15T21:12:53.876Z,6.30
2019-05-15T21:15:27.249Z,9.00
2019-05-15T21:17:59.581Z,5.77
2019-05-15T21:20:23.287Z,4.70
2019-05-15T21:22:50.400Z,3.10
2019-05-15T21:25:19.673Z,4.70
2019-05-15T21:27:48.588Z,3.87
2019-05-15T21:30:21.798Z,4.87
2019-05-15T21:32:49.575Z,8.63
2019-05-15T21:35:18.017Z,7.00
2019-05-15T21:37:45.872Z,5.43
2019-05-15T21:40:13.305Z,5.27
2019-05-15T21:42:41.769Z,4.33
2019-05-15T21:45:18.594Z,3.80
2019-05-15T21:47:49.415Z,2.90
2019-05-15T21:50:19.342Z,3.97
2019-05-15T21:52:49.100Z,4.07
2019-05-15T21:55:22.037Z,4.83
2019-05-15T21:57:49.451Z,7.03
2019-05-15T22:00:29.051Z,4.57
2019-05-15T22:02:58.458Z,5.33
2019-05-15T22:05:25.903Z,3.90
2019-05-15T22:07:54.622Z,2.10
2019-05-15T22:10:21.879Z,3.37
2019-05-15T22:12:49.174Z,8.17
2019-05-15T22:15:19.039Z,6.13
2019-05-15T22:17:49.213Z,2.90
2019-05-15T22:20:16.334Z,3.43
2019-05-15T22:22:43.830Z,2.73
2019-05-15T22:25:11.603Z,4.90
2019-05-15T22:27:38.983Z,6.67
2019-05-15T22:30:08.290Z,3.03
2019-05-15T22:32:38.691Z,5.53
2019-05-15T22:35:12.437Z,5.77
2019-05-15T22:37:33.861Z,3.00
2019-05-15T22:40:01.059Z,6.50
2019-05-15T22:42:33.310Z,6.80
2019-05-15T22:45:00.318Z,14.43
2019-05-15T22:47:28.507Z,7.57
2019-05-15T22:49:55.663Z,6.20
2019-05-15T22:52:43.514Z,4.50
2019-05-15T22:55:10.691Z,6.63
2019-05-15T22:57:38.831Z,5.20
2019-05-15T23:00:08.665Z,7.50
2019-05-15T23:02:37.608Z,5.17
2019-05-15T23:05:41.809Z,5.63
2019-05-15T23:08:08.771Z,4.03
2019-05-15T23:10:37.940Z,4.80
2019-05-15T23:13:05.035Z,5.07
2019-05-15T23:15:32.206Z,4.77
2019-05-15T23:17:59.167Z,5.10
2019-05-15T23:20:28.281Z,5.53
2019-05-15T23:23:32.565Z,4.43
2019-05-15T23:25:59.898Z,8.80
2019-05-15T23:28:28.172Z,6.97
2019-05-15T23:30:57.579Z,6.43
2019-05-15T23:33:24.284Z,4.63
2019-05-15T23:35:51.242Z,6.13
2019-05-15T23:38:18.237Z,6.73
2019-05-15T23:41:22.000Z,7.10
2019-05-15T23:43:49.009Z,5.53
2019-05-15T23:46:18.215Z,6.13
2019-05-15T23:48:44.892Z,6.03
2019-05-15T23:51:31.508Z,5.77
2019-05-15T23:53:58.784Z,5.30
2019-05-15T23:56:25.862Z,6.00
2019-05-15T23:58:52.945Z,10.10
